createdAt,value
2018-07-12T00:02:21.883Z,7.80
2018-07-12T00:04:49.810Z,8.10
2018-07-12T00:07:17.786Z,7.77
2018-07-12T00:09:45.798Z,8.50
2018-07-12T00:12:13.742Z,8.00
2018-07-12T00:14:41.727Z,7.80
2018-07-12T00:17:09.678Z,7.57
2018-07-12T00:19:37.610Z,8.03
2018-07-12T00:22:05.568Z,7.80
2018-07-12T00:24:33.534Z,8.50
2018-07-12T00:27:01.499Z,8.40
2018-07-12T00:29:29.451Z,8.77
2018-07-12T00:31:57.418Z,7.80
2018-07-12T00:34:25.363Z,8.67
2018-07-12T00:36:53.306Z,9.37
2018-07-12T00:39:21.480Z,8.80
2018-07-12T00:41:49.442Z,7.87
2018-07-12T00:44:17.383Z,9.40
2018-07-12T00:46:45.351Z,8.07
2018-07-12T00:49:13.347Z,8.53
2018-07-12T00:51:41.319Z,8.30
2018-07-12T00:54:09.274Z,8.67
2018-07-12T00:56:37.258Z,10.13
2018-07-12T00:59:05.185Z,8.47
2018-07-12T01:01:33.123Z,9.37
2018-07-12T01:04:01.082Z,9.73
2018-07-12T01:06:29.027Z,8.80
2018-07-12T01:08:57.006Z,10.10
2018-07-12T01:11:24.939Z,9.57
2018-07-12T01:13:52.899Z,8.97
2018-07-12T01:16:20.882Z,9.93
2018-07-12T01:18:48.885Z,8.90
2018-07-12T01:21:16.890Z,10.53
2018-07-12T01:23:44.875Z,10.03
2018-07-12T01:26:12.864Z,9.70
2018-07-12T01:28:40.894Z,10.47
2018-07-12T01:31:08.878Z,10.53
2018-07-12T01:33:37.058Z,12.07
2018-07-12T01:36:05.012Z,13.03
2018-07-12T01:38:33.888Z,10.90
2018-07-12T01:41:01.989Z,11.67
2018-07-12T01:43:29.957Z,11.67
2018-07-12T01:45:57.980Z,12.10
2018-07-12T01:48:25.974Z,11.77
2018-07-12T01:50:53.879Z,11.10
2018-07-12T01:53:21.855Z,11.27
2018-07-12T01:55:49.798Z,11.47
2018-07-12T01:58:17.779Z,11.60
2018-07-12T02:00:46.044Z,12.43
2018-07-12T02:03:14.035Z,11.67
2018-07-12T02:05:42.114Z,11.77
2018-07-12T02:08:10.292Z,12.17
2018-07-12T02:10:38.251Z,12.97
2018-07-12T02:13:06.207Z,12.97
2018-07-12T02:15:34.179Z,12.27
2018-07-12T02:18:02.159Z,17.03
2018-07-12T02:20:30.064Z,12.83
2018-07-12T02:22:58.056Z,14.30
2018-07-12T02:25:26.013Z,14.80
2018-07-12T02:27:53.951Z,16.13
2018-07-12T02:30:21.946Z,13.90
2018-07-12T02:32:49.879Z,15.50
2018-07-12T02:35:17.829Z,17.07
2018-07-12T02:37:45.859Z,13.20
2018-07-12T02:40:13.768Z,12.57
2018-07-12T02:42:41.751Z,12.60
2018-07-12T02:45:09.684Z,14.23
2018-07-12T02:47:37.639Z,13.27
2018-07-12T02:50:05.591Z,13.20
2018-07-12T02:52:33.563Z,12.23
2018-07-12T02:55:01.511Z,12.50
2018-07-12T02:57:29.460Z,13.60
2018-07-12T02:59:57.490Z,12.97
2018-07-12T03:02:25.418Z,12.67
2018-07-12T03:04:53.404Z,12.33
2018-07-12T03:07:21.366Z,14.07
2018-07-12T03:09:49.326Z,13.83
2018-07-12T03:12:17.289Z,14.63
2018-07-12T03:14:45.275Z,15.43
2018-07-12T03:17:13.244Z,14.50
2018-07-12T03:19:41.187Z,17.33
2018-07-12T03:22:09.171Z,15.80
2018-07-12T03:24:37.123Z,16.17
2018-07-12T03:27:05.086Z,18.03
2018-07-12T03:29:33.067Z,15.33
2018-07-12T03:32:01.011Z,15.87
2018-07-12T03:34:28.977Z,14.80
2018-07-12T03:36:56.959Z,15.87
2018-07-12T03:39:24.909Z,16.80
2018-07-12T03:41:52.861Z,17.80
2018-07-12T03:44:20.923Z,18.13
2018-07-12T03:46:48.833Z,16.47
2018-07-12T03:49:16.819Z,17.23
2018-07-12T03:51:44.796Z,17.63
2018-07-12T03:54:12.739Z,17.30
2018-07-12T03:56:40.697Z,17.77
2018-07-12T03:59:08.691Z,16.47
2018-07-12T04:01:36.623Z,21.33
2018-07-12T04:04:04.580Z,16.57
2018-07-12T04:06:32.620Z,18.40
2018-07-12T04:09:00.615Z,18.20
2018-07-12T04:11:28.519Z,16.90
2018-07-12T04:13:56.498Z,20.23
2018-07-12T04:16:24.442Z,17.67
2018-07-12T04:18:52.385Z,20.10
2018-07-12T04:21:20.378Z,18.40
2018-07-12T04:23:48.362Z,18.40
2018-07-12T04:26:16.287Z,20.60
2018-07-12T04:28:44.263Z,19.27
2018-07-12T04:31:12.245Z,23.77
2018-07-12T04:33:40.159Z,21.03
2018-07-12T04:36:08.198Z,19.90
2018-07-12T04:38:36.199Z,21.70
2018-07-12T04:41:04.367Z,21.90
2018-07-12T04:43:32.359Z,20.67
2018-07-12T04:46:00.313Z,27.33
2018-07-12T04:48:28.261Z,20.20
2018-07-12T04:50:56.246Z,24.83
2018-07-12T04:53:24.198Z,23.60
2018-07-12T04:55:52.147Z,22.87
2018-07-12T04:58:20.266Z,22.90
2018-07-12T05:00:48.091Z,22.43
2018-07-12T05:03:16.064Z,24.37
2018-07-12T05:05:44.031Z,26.93
2018-07-12T05:08:12.041Z,24.47
2018-07-12T05:10:39.936Z,24.13
2018-07-12T05:13:07.998Z,25.67
2018-07-12T05:15:35.968Z,24.30
2018-07-12T05:18:03.905Z,25.07
2018-07-12T05:20:32.021Z,27.43
2018-07-12T05:23:00.045Z,27.23
2018-07-12T05:25:28.000Z,24.53
2018-07-12T05:27:55.980Z,25.20
2018-07-12T05:30:23.951Z,25.57
2018-07-12T05:32:51.921Z,28.47
2018-07-12T05:35:19.902Z,24.43
2018-07-12T05:37:48.880Z,26.10
2018-07-12T05:40:17.906Z,25.73
2018-07-12T05:42:46.890Z,28.07
2018-07-12T05:45:15.890Z,30.33
2018-07-12T05:47:44.867Z,28.07
2018-07-12T05:50:13.863Z,28.57
2018-07-12T05:52:42.922Z,26.73
2018-07-12T05:55:11.955Z,28.00
2018-07-12T05:57:40.990Z,26.80
2018-07-12T06:00:10.042Z,29.57
2018-07-12T06:02:39.044Z,28.33
2018-07-12T06:05:08.007Z,27.03
2018-07-12T06:07:37.014Z,28.80
2018-07-12T06:10:06.109Z,25.93
2018-07-12T06:12:35.090Z,29.20
2018-07-12T06:15:04.293Z,26.97
2018-07-12T06:17:33.282Z,30.67
2018-07-12T06:20:02.302Z,25.83
2018-07-12T06:22:31.267Z,26.93
2018-07-12T06:25:00.282Z,26.17
2018-07-12T06:27:29.327Z,26.43
2018-07-12T06:29:58.306Z,29.03
2018-07-12T06:32:27.269Z,25.97
2018-07-12T06:34:59.422Z,27.10
2018-07-12T06:37:29.323Z,25.50
2018-07-12T06:39:58.325Z,24.47
2018-07-12T06:42:27.400Z,25.07
2018-07-12T06:44:56.649Z,24.87
2018-07-12T06:47:25.735Z,26.63
2018-07-12T06:49:54.767Z,25.50
2018-07-12T06:52:23.755Z,25.10
2018-07-12T06:54:52.765Z,28.57
2018-07-12T06:57:21.812Z,26.33
2018-07-12T06:59:50.794Z,26.57
2018-07-12T07:02:19.769Z,25.83
2018-07-12T07:04:48.759Z,26.13
2018-07-12T07:07:17.771Z,25.93
2018-07-12T07:09:46.747Z,26.60
2018-07-12T07:12:15.770Z,25.90
2018-07-12T07:14:44.754Z,24.73
2018-07-12T07:17:13.778Z,25.83
2018-07-12T07:19:42.780Z,25.03
2018-07-12T07:22:11.738Z,25.70
2018-07-12T07:24:40.778Z,24.33
2018-07-12T07:27:09.746Z,24.33
2018-07-12T07:29:38.808Z,26.97
2018-07-12T07:32:07.971Z,24.80
2018-07-12T07:34:37.017Z,22.13
2018-07-12T07:37:06.011Z,22.70
2018-07-12T07:39:34.978Z,23.80
2018-07-12T07:42:03.966Z,22.43
2018-07-12T07:44:33.006Z,22.87
2018-07-12T07:47:02.039Z,21.63
2018-07-12T07:49:30.991Z,23.33
2018-07-12T07:52:00.029Z,22.67
2018-07-12T07:54:29.034Z,21.43
2018-07-12T07:56:58.098Z,18.60
2018-07-12T07:59:27.154Z,19.03
2018-07-12T08:01:56.085Z,18.17
2018-07-12T08:04:25.122Z,16.03
2018-07-12T08:06:54.316Z,15.67
2018-07-12T08:09:23.311Z,16.73
2018-07-12T08:11:52.407Z,16.80
2018-07-12T08:14:21.414Z,15.93
2018-07-12T08:16:50.410Z,17.43
2018-07-12T08:19:19.391Z,17.20
2018-07-12T08:21:48.442Z,17.23
2018-07-12T08:24:17.400Z,18.63
2018-07-12T08:26:46.371Z,18.87
2018-07-12T08:29:15.347Z,17.33
2018-07-12T08:31:44.344Z,15.73
2018-07-12T08:34:13.379Z,14.33
2018-07-12T08:36:42.362Z,15.60
2018-07-12T08:39:11.356Z,15.00
2018-07-12T08:41:40.343Z,15.10
2018-07-12T08:44:09.307Z,13.93
2018-07-12T08:46:38.306Z,14.73
2018-07-12T08:49:07.314Z,13.40
2018-07-12T08:51:36.307Z,12.80
2018-07-12T08:54:05.318Z,12.17
2018-07-12T08:56:34.376Z,12.40
2018-07-12T08:59:03.551Z,12.30
2018-07-12T09:01:32.511Z,11.23
2018-07-12T09:04:01.565Z,12.73
2018-07-12T09:06:30.559Z,10.70
2018-07-12T09:08:59.531Z,10.30
2018-07-12T09:11:28.571Z,11.13
2018-07-12T09:13:57.533Z,10.67
2018-07-12T09:16:26.524Z,9.83
2018-07-12T09:18:55.619Z,9.87
2018-07-12T09:21:24.570Z,9.00
2018-07-12T09:23:53.526Z,7.97
2018-07-12T09:26:22.602Z,9.80
2018-07-12T09:28:51.629Z,10.03
2018-07-12T09:31:20.708Z,9.07
2018-07-12T09:33:49.706Z,7.60
2018-07-12T09:36:18.678Z,8.00
2018-07-12T09:38:49.846Z,6.53
2018-07-12T09:41:19.528Z,6.57
2018-07-12T09:43:49.092Z,6.00
2018-07-12T09:46:18.111Z,6.80
2018-07-12T09:48:48.454Z,6.30
2018-07-12T09:51:17.449Z,6.73
2018-07-12T09:53:47.202Z,6.00
2018-07-12T09:56:16.288Z,6.20
2018-07-12T09:58:45.190Z,7.30
2018-07-12T10:01:19.595Z,5.77
2018-07-12T10:03:50.227Z,6.37
2018-07-12T10:06:24.568Z,6.90
2018-07-12T10:08:59.787Z,6.93
2018-07-12T10:11:34.915Z,6.90
2018-07-12T10:14:09.369Z,7.23
2018-07-12T10:16:44.288Z,6.60
2018-07-12T10:19:13.300Z,5.57
2018-07-12T10:21:42.278Z,6.17
2018-07-12T10:24:11.386Z,6.03
2018-07-12T10:26:40.346Z,6.00
2018-07-12T10:29:09.361Z,5.57
2018-07-12T10:31:38.462Z,5.83
2018-07-12T10:34:07.427Z,5.63
2018-07-12T10:36:36.410Z,5.27
2018-07-12T10:39:07.555Z,5.73
2018-07-12T10:41:36.507Z,5.30
2018-07-12T10:44:05.742Z,5.80
2018-07-12T10:46:34.746Z,5.27
2018-07-12T10:49:04.023Z,5.10
2018-07-12T10:51:33.045Z,4.53
2018-07-12T10:54:02.040Z,5.13
2018-07-12T10:56:31.051Z,6.10
2018-07-12T10:59:00.111Z,4.87
2018-07-12T11:01:29.134Z,4.83
2018-07-12T11:03:58.142Z,5.47
2018-07-12T11:06:27.202Z,5.87
2018-07-12T11:08:56.257Z,5.30
2018-07-12T11:11:25.355Z,4.20
2018-07-12T11:13:54.470Z,3.67
2018-07-12T11:16:23.462Z,7.60
2018-07-12T11:18:52.452Z,4.20
2018-07-12T11:21:21.447Z,3.70
2018-07-12T11:23:50.645Z,3.43
2018-07-12T11:26:19.637Z,3.30
2018-07-12T11:28:48.614Z,3.20
2018-07-12T11:31:17.650Z,3.00
2018-07-12T11:33:47.775Z,4.83
2018-07-12T11:36:16.756Z,4.23
2018-07-12T11:38:46.263Z,3.43
2018-07-12T11:41:15.446Z,2.80
2018-07-12T11:43:44.433Z,4.10
2018-07-12T11:46:14.715Z,3.17
2018-07-12T11:48:44.426Z,2.93
2018-07-12T11:51:13.514Z,3.10
2018-07-12T11:53:42.492Z,3.50
2018-07-12T11:56:11.599Z,5.27
2018-07-12T11:58:41.634Z,3.07
2018-07-12T12:01:10.662Z,4.13
2018-07-12T12:03:39.639Z,6.93
2018-07-12T12:06:08.608Z,3.40
2018-07-12T12:08:37.641Z,4.13
2018-07-12T12:11:06.643Z,3.50
2018-07-12T12:13:35.978Z,3.40
2018-07-12T12:16:04.987Z,3.30
2018-07-12T12:18:34.024Z,3.80
2018-07-12T12:21:02.978Z,3.80
2018-07-12T12:23:31.950Z,3.97
2018-07-12T12:26:00.930Z,3.43
2018-07-12T12:28:29.997Z,3.60
2018-07-12T12:30:58.957Z,3.07
2018-07-12T12:33:28.048Z,3.50
2018-07-12T12:35:57.029Z,3.43
2018-07-12T12:38:25.988Z,3.43
2018-07-12T12:40:55.070Z,4.30
2018-07-12T12:43:24.058Z,3.40
2018-07-12T12:45:53.051Z,4.37
2018-07-12T12:48:22.083Z,4.90
2018-07-12T12:50:51.086Z,3.50
2018-07-12T12:53:20.060Z,4.43
2018-07-12T12:55:49.075Z,3.23
2018-07-12T12:58:18.435Z,3.23
2018-07-12T13:00:47.495Z,3.50
2018-07-12T13:03:16.526Z,3.20
2018-07-12T13:05:45.543Z,3.30
2018-07-12T13:08:14.526Z,3.93
2018-07-12T13:10:43.573Z,3.00
2018-07-12T13:13:12.514Z,3.00
2018-07-12T13:15:41.531Z,3.00
2018-07-12T13:18:10.527Z,3.20
2018-07-12T13:20:39.500Z,3.10
2018-07-12T13:23:08.527Z,2.70
2018-07-12T13:25:37.606Z,4.43
2018-07-12T13:28:06.607Z,1.90
2018-07-12T13:30:35.550Z,2.10
2018-07-12T13:33:04.568Z,1.60
2018-07-12T13:35:33.559Z,2.03
2018-07-12T13:38:02.731Z,1.77
2018-07-12T13:40:31.808Z,2.13
2018-07-12T13:43:00.786Z,2.13
2018-07-12T13:45:30.035Z,1.63
2018-07-12T13:47:59.274Z,2.23
2018-07-12T13:50:28.883Z,2.23
2018-07-12T13:52:57.930Z,2.83
2018-07-12T13:55:26.955Z,4.03
2018-07-12T13:57:55.957Z,2.80
2018-07-12T14:00:24.967Z,2.50
2018-07-12T14:02:53.991Z,2.90
2018-07-12T14:05:22.987Z,4.77
2018-07-12T14:07:52.002Z,2.97
2018-07-12T14:10:20.971Z,2.97
2018-07-12T14:12:49.971Z,2.50
2018-07-12T14:15:18.994Z,3.30
2018-07-12T14:17:48.048Z,2.20
2018-07-12T14:20:17.071Z,1.90
2018-07-12T14:22:46.072Z,2.47
2018-07-12T14:25:15.083Z,2.63
2018-07-12T14:27:44.179Z,2.67
2018-07-12T14:30:13.152Z,1.93
2018-07-12T14:32:42.184Z,2.60
2018-07-12T14:35:11.397Z,1.90
2018-07-12T14:37:40.513Z,2.00
2018-07-12T14:40:09.828Z,2.47
2018-07-12T14:42:38.818Z,1.40
2018-07-12T14:45:07.907Z,1.90
2018-07-12T14:47:36.943Z,1.27
2018-07-12T14:50:05.937Z,1.50
2018-07-12T14:52:34.930Z,1.60
2018-07-12T14:55:03.947Z,4.23
2018-07-12T14:57:32.996Z,1.30
2018-07-12T15:00:01.975Z,1.50
2018-07-12T15:02:30.976Z,4.27
2018-07-12T15:04:59.946Z,1.57
2018-07-12T15:07:28.963Z,1.70
2018-07-12T15:09:57.947Z,2.70
2018-07-12T15:12:26.929Z,2.27
2018-07-12T15:14:55.930Z,3.27
2018-07-12T15:17:24.926Z,2.00
2018-07-12T15:19:53.931Z,1.93
2018-07-12T15:22:22.963Z,4.10
2018-07-12T15:24:51.938Z,2.00
2018-07-12T15:27:20.985Z,2.07
2018-07-12T15:29:49.937Z,2.50
2018-07-12T15:32:19.038Z,1.77
2018-07-12T15:34:47.994Z,2.53
2018-07-12T15:37:17.043Z,2.17
2018-07-12T15:39:46.043Z,2.47
2018-07-12T15:42:15.087Z,2.20
2018-07-12T15:44:44.110Z,2.30
2018-07-12T15:47:13.258Z,2.33
2018-07-12T15:49:42.254Z,2.57
2018-07-12T15:52:11.238Z,2.63
2018-07-12T15:54:40.230Z,2.70
2018-07-12T15:57:09.283Z,4.47
2018-07-12T15:59:38.340Z,4.07
2018-07-12T16:02:07.471Z,2.70
2018-07-12T16:04:36.475Z,2.70
2018-07-12T16:07:05.731Z,2.73
2018-07-12T16:09:34.735Z,2.77
2018-07-12T16:12:03.721Z,2.77
2018-07-12T16:14:32.679Z,2.70
2018-07-12T16:17:01.734Z,3.10
2018-07-12T16:19:31.026Z,3.20
2018-07-12T16:22:00.166Z,2.60
2018-07-12T16:24:29.175Z,4.70
2018-07-12T16:26:58.166Z,3.93
2018-07-12T16:29:27.323Z,2.87
2018-07-12T16:31:56.402Z,5.10
2018-07-12T16:34:25.402Z,4.47
2018-07-12T16:36:54.391Z,3.23
2018-07-12T16:39:23.358Z,2.87
2018-07-12T16:41:52.425Z,2.77
2018-07-12T16:44:21.426Z,2.97
2018-07-12T16:46:50.436Z,3.13
2018-07-12T16:49:19.463Z,3.27
2018-07-12T16:51:48.422Z,2.90
2018-07-12T16:54:17.412Z,3.23
2018-07-12T16:56:46.391Z,2.83
2018-07-12T16:59:16.471Z,3.10
2018-07-12T17:01:45.501Z,3.17
2018-07-12T17:04:14.546Z,4.00
2018-07-12T17:06:43.579Z,2.93
2018-07-12T17:09:12.594Z,3.43
2018-07-12T17:11:41.568Z,3.10
2018-07-12T17:14:10.611Z,3.50
2018-07-12T17:16:39.710Z,4.90
2018-07-12T17:19:08.886Z,3.30
2018-07-12T17:21:37.953Z,3.20
2018-07-12T17:24:06.975Z,2.87
2018-07-12T17:26:35.962Z,3.23
2018-07-12T17:29:04.962Z,3.07
2018-07-12T17:31:33.943Z,2.30
2018-07-12T17:34:03.060Z,5.30
2018-07-12T17:36:32.078Z,3.03
2018-07-12T17:39:01.146Z,2.90
2018-07-12T17:43:56.426Z,4.40
2018-07-12T17:46:26.039Z,3.40
2018-07-12T17:48:55.102Z,3.80
2018-07-12T17:51:24.125Z,3.27
2018-07-12T17:53:53.123Z,3.70
2018-07-12T17:56:22.331Z,3.40
2018-07-12T17:58:51.362Z,3.03
2018-07-12T18:01:20.318Z,3.40
2018-07-12T18:03:49.543Z,3.50
2018-07-12T18:06:18.650Z,3.37
2018-07-12T18:08:47.692Z,4.17
2018-07-12T18:11:16.689Z,3.73
2018-07-12T18:13:45.695Z,3.60
2018-07-12T18:16:14.688Z,3.33
2018-07-12T18:18:43.830Z,3.23
2018-07-12T18:21:12.800Z,3.23
2018-07-12T18:23:41.936Z,3.17
2018-07-12T18:26:10.979Z,4.50
2018-07-12T18:28:40.016Z,3.67
2018-07-12T18:31:08.986Z,3.50
2018-07-12T18:33:38.094Z,3.10
2018-07-12T18:36:07.146Z,4.13
2018-07-12T18:38:36.268Z,3.83
2018-07-12T18:41:05.389Z,3.60
2018-07-12T18:43:34.401Z,3.80
2018-07-12T18:46:03.394Z,3.73
2018-07-12T18:48:32.465Z,3.90
2018-07-12T18:51:01.413Z,3.80
2018-07-12T18:53:30.454Z,4.13
2018-07-12T18:55:59.742Z,4.13
2018-07-12T18:58:28.718Z,4.87
2018-07-12T19:00:57.834Z,5.10
2018-07-12T19:03:27.039Z,4.67
2018-07-12T19:05:56.110Z,4.90
2018-07-12T19:08:25.094Z,5.10
2018-07-12T19:10:54.174Z,4.63
2018-07-12T19:13:23.332Z,5.03
2018-07-12T19:15:52.358Z,4.73
2018-07-12T19:18:21.394Z,4.90
2018-07-12T19:20:50.595Z,4.80
2018-07-12T19:23:19.638Z,7.37
2018-07-12T19:25:48.655Z,5.37
2018-07-12T19:28:17.828Z,5.40
2018-07-12T19:30:46.821Z,5.10
2018-07-12T19:33:15.839Z,5.30
2018-07-12T19:35:44.855Z,5.30
2018-07-12T19:38:13.925Z,5.53
2018-07-12T19:40:43.027Z,4.80
2018-07-12T19:43:12.027Z,5.33
2018-07-12T19:45:41.010Z,5.90
2018-07-12T19:48:10.008Z,5.50
2018-07-12T19:50:38.979Z,6.10
2018-07-12T19:53:07.965Z,5.57
2018-07-12T19:55:36.958Z,5.63
2018-07-12T19:58:05.991Z,5.37
2018-07-12T20:00:34.944Z,5.70
2018-07-12T20:03:03.939Z,5.50
2018-07-12T20:05:33.033Z,6.23
2018-07-12T20:08:02.099Z,5.73
2018-07-12T20:10:31.170Z,5.33
2018-07-12T20:13:00.203Z,5.13
2018-07-12T20:15:29.212Z,5.50
2018-07-12T20:17:58.235Z,6.03
2018-07-12T20:20:27.263Z,5.63
2018-07-12T20:22:56.246Z,6.77
2018-07-12T20:25:25.330Z,6.43
2018-07-12T20:27:54.290Z,5.87
2018-07-12T20:30:23.301Z,5.90
2018-07-12T20:32:52.414Z,6.07
2018-07-12T20:35:21.398Z,6.20
2018-07-12T20:37:50.406Z,6.40
2018-07-12T20:40:19.595Z,6.23
2018-07-12T20:42:48.702Z,6.30
2018-07-12T20:45:18.266Z,5.50
2018-07-12T20:47:47.234Z,6.20
2018-07-12T20:50:18.819Z,6.17
2018-07-12T20:52:48.062Z,6.90
2018-07-12T20:57:48.071Z,6.30
2018-07-12T21:00:17.230Z,7.00
2018-07-12T21:02:46.490Z,6.77
2018-07-12T21:05:15.734Z,7.00
2018-07-12T21:07:44.766Z,6.70
2018-07-12T21:10:14.041Z,6.53
2018-07-12T21:12:43.563Z,6.70
2018-07-12T21:15:12.566Z,6.97
2018-07-12T21:17:41.526Z,8.07
2018-07-12T21:20:11.675Z,6.90
2018-07-12T21:22:40.654Z,7.33
2018-07-12T21:25:09.670Z,6.83
2018-07-12T21:27:38.643Z,6.83
2018-07-12T21:30:09.297Z,7.10
2018-07-12T21:32:38.390Z,7.13
2018-07-12T21:35:07.799Z,7.47
2018-07-12T21:37:36.831Z,7.80
2018-07-12T21:40:05.888Z,7.17
2018-07-12T21:42:35.006Z,6.47
2018-07-12T21:45:04.113Z,7.20
2018-07-12T21:47:33.120Z,8.00
2018-07-12T21:50:02.132Z,7.23
2018-07-12T21:52:31.223Z,6.87
2018-07-12T21:55:00.227Z,6.93
2018-07-12T21:57:29.874Z,7.83
2018-07-12T21:59:58.866Z,7.47
2018-07-12T22:02:27.855Z,7.47
2018-07-12T22:04:56.818Z,7.10
2018-07-12T22:07:36.503Z,7.40
2018-07-12T22:10:06.348Z,7.50
2018-07-12T22:12:35.415Z,7.33
2018-07-12T22:15:04.397Z,7.87
2018-07-12T22:17:33.374Z,7.27
2018-07-12T22:20:02.402Z,7.27
2018-07-12T22:22:31.377Z,7.70
2018-07-12T22:25:00.354Z,7.63
2018-07-12T22:27:30.187Z,7.80
2018-07-12T22:29:59.154Z,7.63
2018-07-12T22:32:28.208Z,8.27
2018-07-12T22:34:57.336Z,8.20
2018-07-12T22:37:26.295Z,8.53
2018-07-12T22:39:55.251Z,8.33
2018-07-12T22:42:24.227Z,7.40
2018-07-12T22:44:53.191Z,7.60
2018-07-12T22:47:22.173Z,7.67
2018-07-12T22:49:51.126Z,8.93
2018-07-12T22:52:21.267Z,8.17
2018-07-12T22:54:51.004Z,8.47
2018-07-12T22:57:20.215Z,8.47
2018-07-12T22:59:49.294Z,8.13
2018-07-12T23:02:18.297Z,7.73
2018-07-12T23:04:47.267Z,8.20
2018-07-12T23:07:16.262Z,8.27
2018-07-12T23:09:45.364Z,8.17
2018-07-12T23:12:14.353Z,8.13
2018-07-12T23:14:43.359Z,8.27
2018-07-12T23:17:12.339Z,8.60
2018-07-12T23:19:41.383Z,8.97
2018-07-12T23:22:10.352Z,8.50
2018-07-12T23:24:39.403Z,9.30
2018-07-12T23:27:08.314Z,8.50
2018-07-12T23:29:37.333Z,8.13
2018-07-12T23:32:06.336Z,8.90
2018-07-12T23:34:35.315Z,8.17
2018-07-12T23:37:04.287Z,7.80
2018-07-12T23:39:33.291Z,8.20
2018-07-12T23:42:02.283Z,7.80
2018-07-12T23:44:31.262Z,8.40
2018-07-12T23:47:00.222Z,7.90
2018-07-12T23:49:29.294Z,8.43
2018-07-12T23:51:58.266Z,8.40
2018-07-12T23:54:27.299Z,8.40
2018-07-12T23:56:56.270Z,8.17
2018-07-12T23:59:25.250Z,9.30
